Time;durP1;ratioP1;P1;durP2;ratioP2;P2;SDS_P1;SDS_P2;PMS_P1;PMS_P2;Temp;Humidity;BMP_temperature;BMP_pressure;BME280_temperature;BME280_humidity;BME280_pressure;Samples;Min_cycle;Max_cycle;Signal;HPM_P1;HPM_P2
2023/12/16 00:02:13;;;;;;;11.70;3.92;;;;;;;;;;5089003;28;20039;-66
2023/12/16 00:04:40;;;;;;;8.90;4.03;;;;;;;;;;5088568;28;20067;-66
2023/12/16 00:07:06;;;;;;;10.52;4.22;;;;;;;;;;5086408;28;20043;-66
2023/12/16 00:09:31;;;;;;;9.80;4.25;;;;;;;;;;5090342;28;20062;-65
2023/12/16 00:11:57;;;;;;;7.68;3.83;;;;;;;;;;5092212;28;20522;-66
2023/12/16 00:14:22;;;;;;;8.98;3.88;;;;;;;;;;5092660;28;20064;-66
2023/12/16 00:16:48;;;;;;;6.97;3.60;;;;;;;;;;5092340;28;20036;-66
2023/12/16 00:19:13;;;;;;;11.23;3.97;;;;;;;;;;5091579;28;20031;-66
2023/12/16 00:21:39;;;;;;;8.98;3.83;;;;;;;;;;5091911;28;20085;-67
2023/12/16 00:24:06;;;;;;;7.18;3.20;;;;;;;;;;5091072;28;20031;-66
2023/12/16 00:26:32;;;;;;;10.25;3.75;;;;;;;;;;5091916;28;20035;-66
2023/12/16 00:28:57;;;;;;;13.40;4.80;;;;;;;;;;5092453;28;20044;-66
2023/12/16 00:31:23;;;;;;;7.38;3.17;;;;;;;;;;5091423;28;20034;-66
2023/12/16 00:33:48;;;;;;;8.27;4.03;;;;;;;;;;5092221;28;20110;-66
2023/12/16 00:36:13;;;;;;;8.10;4.32;;;;;;;;;;5090619;28;20039;-67
2023/12/16 00:38:39;;;;;;;9.25;4.93;;;;;;;;;;5092089;28;20036;-66
2023/12/16 00:41:04;;;;;;;11.32;4.63;;;;;;;;;;5091752;28;20482;-67
2023/12/16 00:43:29;;;;;;;17.85;4.95;;;;;;;;;;5091771;28;20039;-66
2023/12/16 00:45:55;;;;;;;9.00;4.35;;;;;;;;;;5092163;28;20053;-67
2023/12/16 00:48:20;;;;;;;8.05;4.40;;;;;;;;;;5091553;28;20036;-66
2023/12/16 00:50:45;;;;;;;10.38;4.30;;;;;;;;;;5072546;28;20043;-66
2023/12/16 00:53:12;;;;;;;9.93;4.57;;;;;;;;;;5082688;28;20126;-66
2023/12/16 00:55:38;;;;;;;9.15;4.70;;;;;;;;;;5091685;28;20061;-66
2023/12/16 00:58:04;;;;;;;9.18;5.00;;;;;;;;;;5091939;28;20105;-66
2023/12/16 01:00:29;;;;;;;13.15;4.65;;;;;;;;;;5092184;28;20543;-66
2023/12/16 01:02:54;;;;;;;10.30;4.88;;;;;;;;;;5088277;28;20056;-66
2023/12/16 01:05:20;;;;;;;9.40;5.00;;;;;;;;;;5073991;28;20098;-66
2023/12/16 01:07:46;;;;;;;12.75;4.53;;;;;;;;;;5091488;28;20050;-67
2023/12/16 01:10:11;;;;;;;6.32;4.20;;;;;;;;;;5091495;28;20032;-67
2023/12/16 01:12:37;;;;;;;7.10;4.57;;;;;;;;;;5084577;28;20483;-66
2023/12/16 01:15:03;;;;;;;12.55;5.03;;;;;;;;;;5091899;28;20471;-66
2023/12/16 01:17:28;;;;;;;9.75;4.72;;;;;;;;;;5090853;28;20040;-67
2023/12/16 01:19:54;;;;;;;7.35;4.90;;;;;;;;;;5091536;28;20047;-67
2023/12/16 01:22:19;;;;;;;14.25;5.30;;;;;;;;;;5074786;28;20040;-66
2023/12/16 01:24:44;;;;;;;13.50;5.07;;;;;;;;;;5086805;28;20032;-66
2023/12/16 01:27:10;;;;;;;10.52;5.13;;;;;;;;;;5091317;28;20039;-66
2023/12/16 01:29:35;;;;;;;9.48;4.78;;;;;;;;;;5090754;28;20456;-66
2023/12/16 01:32:00;;;;;;;7.50;4.65;;;;;;;;;;5091122;28;20528;-67
2023/12/16 01:34:26;;;;;;;9.32;4.15;;;;;;;;;;5089644;28;20468;-66
2023/12/16 01:36:51;;;;;;;8.35;3.92;;;;;;;;;;5090957;28;20641;-66
2023/12/16 01:39:17;;;;;;;5.30;3.00;;;;;;;;;;5089871;28;20115;-66
2023/12/16 01:41:42;;;;;;;5.05;3.08;;;;;;;;;;5090521;28;20120;-66
2023/12/16 01:44:08;;;;;;;5.85;2.72;;;;;;;;;;5082811;28;20645;-66
2023/12/16 01:46:35;;;;;;;4.53;2.42;;;;;;;;;;5090737;28;20044;-66
2023/12/16 01:49:01;;;;;;;5.10;2.40;;;;;;;;;;5081266;28;20040;-66
2023/12/16 01:51:27;;;;;;;6.85;2.45;;;;;;;;;;5090807;28;20031;-66
2023/12/16 01:53:52;;;;;;;4.43;2.40;;;;;;;;;;5063732;28;20030;-66
2023/12/16 01:56:17;;;;;;;4.13;2.45;;;;;;;;;;5072344;28;20040;-67
2023/12/16 01:58:43;;;;;;;5.15;2.00;;;;;;;;;;5072798;28;20594;-66
2023/12/16 02:01:08;;;;;;;3.83;1.95;;;;;;;;;;5090495;28;20032;-67
2023/12/16 02:03:35;;;;;;;2.67;1.58;;;;;;;;;;5090733;28;20222;-66
2023/12/16 02:06:01;;;;;;;2.70;1.73;;;;;;;;;;5072619;28;20028;-66
2023/12/16 02:08:26;;;;;;;3.42;1.80;;;;;;;;;;5090038;28;20054;-66
2023/12/16 02:10:52;;;;;;;4.38;1.67;;;;;;;;;;5090896;28;20090;-66
2023/12/16 02:13:18;;;;;;;3.45;1.75;;;;;;;;;;5090590;28;20090;-66
2023/12/16 02:15:44;;;;;;;5.63;1.45;;;;;;;;;;5090554;28;20101;-66
2023/12/16 02:18:11;;;;;;;3.67;1.60;;;;;;;;;;5090214;28;20483;-66
2023/12/16 02:20:36;;;;;;;2.63;1.70;;;;;;;;;;5086234;28;20043;-66
2023/12/16 02:23:03;;;;;;;3.45;1.88;;;;;;;;;;5090068;28;20036;-67
2023/12/16 02:25:28;;;;;;;3.22;1.90;;;;;;;;;;5072552;28;20047;-66
2023/12/16 02:27:53;;;;;;;3.15;2.10;;;;;;;;;;5090270;28;20040;-66
2023/12/16 02:30:20;;;;;;;3.30;2.05;;;;;;;;;;5090009;28;20028;-66
2023/12/16 02:32:46;;;;;;;6.05;2.25;;;;;;;;;;5089795;28;20040;-66
2023/12/16 02:35:11;;;;;;;4.05;2.55;;;;;;;;;;5090442;28;20028;-66
2023/12/16 02:37:37;;;;;;;3.15;2.20;;;;;;;;;;5073869;28;20388;-66
2023/12/16 02:40:02;;;;;;;4.65;2.63;;;;;;;;;;5090073;28;20383;-66
2023/12/16 02:42:28;;;;;;;5.07;2.78;;;;;;;;;;5090063;28;20423;-67
2023/12/16 02:44:53;;;;;;;5.55;2.72;;;;;;;;;;5089691;28;20040;-66
2023/12/16 02:47:18;;;;;;;5.75;2.95;;;;;;;;;;5089746;28;20043;-66
2023/12/16 02:49:44;;;;;;;3.47;2.22;;;;;;;;;;5090182;28;20038;-66
2023/12/16 02:52:10;;;;;;;6.57;2.88;;;;;;;;;;5089645;28;20050;-66
2023/12/16 02:54:35;;;;;;;4.13;2.85;;;;;;;;;;5090136;28;20069;-66
2023/12/16 02:57:00;;;;;;;4.70;3.47;;;;;;;;;;5089642;28;20024;-67
2023/12/16 02:59:26;;;;;;;4.20;2.67;;;;;;;;;;5089787;28;20039;-66
2023/12/16 03:01:51;;;;;;;5.30;2.40;;;;;;;;;;5087911;28;20093;-66
2023/12/16 03:04:16;;;;;;;9.43;2.50;;;;;;;;;;5089859;28;20033;-66
2023/12/16 03:06:45;;;;;;;4.18;2.42;;;;;;;;;;5089218;28;20070;-66
2023/12/16 03:09:11;;;;;;;5.47;2.47;;;;;;;;;;5077725;28;20040;-66
2023/12/16 03:11:37;;;;;;;2.90;2.10;;;;;;;;;;5088198;28;20387;-66
2023/12/16 03:14:02;;;;;;;4.65;2.28;;;;;;;;;;5085894;28;20032;-66
2023/12/16 03:16:28;;;;;;;3.90;2.20;;;;;;;;;;5088789;28;20044;-66
2023/12/16 03:18:53;;;;;;;3.03;1.92;;;;;;;;;;5090040;28;20059;-66
2023/12/16 03:21:18;;;;;;;5.10;1.77;;;;;;;;;;5089212;28;20035;-66
2023/12/16 03:23:44;;;;;;;6.40;2.05;;;;;;;;;;5089980;28;20032;-67
2023/12/16 03:26:09;;;;;;;2.85;1.70;;;;;;;;;;5089216;28;20028;-67
2023/12/16 03:28:34;;;;;;;3.17;1.33;;;;;;;;;;5089820;28;20109;-66
2023/12/16 03:31:00;;;;;;;3.45;1.70;;;;;;;;;;5089667;28;20126;-66
2023/12/16 03:33:26;;;;;;;4.97;1.85;;;;;;;;;;5089351;28;20032;-65
2023/12/16 03:35:51;;;;;;;4.20;2.15;;;;;;;;;;5089016;28;20028;-66
2023/12/16 03:38:16;;;;;;;4.28;1.88;;;;;;;;;;5085397;28;20035;-66
2023/12/16 03:40:42;;;;;;;3.35;1.90;;;;;;;;;;5089220;28;20528;-66
2023/12/16 03:43:07;;;;;;;2.90;1.80;;;;;;;;;;5089107;28;20032;-66
2023/12/16 03:45:32;;;;;;;4.80;1.95;;;;;;;;;;5093128;28;20135;-66
2023/12/16 03:47:58;;;;;;;3.80;2.20;;;;;;;;;;5093113;28;20043;-65
2023/12/16 03:50:23;;;;;;;3.95;2.15;;;;;;;;;;5090228;28;20033;-66
2023/12/16 03:52:48;;;;;;;5.82;2.55;;;;;;;;;;5073885;28;20042;-66
2023/12/16 03:55:14;;;;;;;4.10;2.35;;;;;;;;;;5093395;28;20032;-66
2023/12/16 03:57:39;;;;;;;4.15;2.33;;;;;;;;;;5092783;28;20032;-66
2023/12/16 04:00:05;;;;;;;4.75;2.63;;;;;;;;;;5092969;28;20096;-66
2023/12/16 04:02:30;;;;;;;5.95;2.42;;;;;;;;;;5092803;28;20591;-66
2023/12/16 04:04:56;;;;;;;5.13;2.47;;;;;;;;;;5093135;28;20032;-66
2023/12/16 04:07:21;;;;;;;6.53;2.60;;;;;;;;;;5092655;28;20051;-66
2023/12/16 04:09:46;;;;;;;3.50;2.40;;;;;;;;;;5092998;28;20047;-66
2023/12/16 04:12:13;;;;;;;2.72;1.73;;;;;;;;;;5092544;28;20031;-66
2023/12/16 04:14:39;;;;;;;2.33;1.48;;;;;;;;;;5074799;28;20055;-66
2023/12/16 04:17:05;;;;;;;3.47;1.50;;;;;;;;;;5092372;28;20488;-66
2023/12/16 04:19:30;;;;;;;2.85;1.67;;;;;;;;;;5092739;28;20108;-66
2023/12/16 04:21:56;;;;;;;5.55;2.13;;;;;;;;;;5092399;28;20070;-66
2023/12/16 04:24:21;;;;;;;3.72;1.65;;;;;;;;;;5074772;28;20067;-66
2023/12/16 04:26:47;;;;;;;2.13;1.13;;;;;;;;;;5092569;28;20040;-66
2023/12/16 04:29:12;;;;;;;3.75;1.60;;;;;;;;;;5092499;28;20036;-66
2023/12/16 04:31:38;;;;;;;2.63;1.48;;;;;;;;;;5092423;28;20539;-66
2023/12/16 04:34:04;;;;;;;2.67;1.20;;;;;;;;;;5092880;28;20040;-66
2023/12/16 04:36:30;;;;;;;1.50;0.93;;;;;;;;;;5074092;28;20046;-65
2023/12/16 04:38:55;;;;;;;2.58;1.50;;;;;;;;;;5090800;28;20020;-66
2023/12/16 04:41:21;;;;;;;2.15;1.13;;;;;;;;;;5092142;28;20043;-66
2023/12/16 04:43:46;;;;;;;3.33;1.05;;;;;;;;;;5092226;28;20101;-66
2023/12/16 04:46:12;;;;;;;1.40;0.82;;;;;;;;;;5091946;28;20028;-66
2023/12/16 04:48:37;;;;;;;1.90;1.00;;;;;;;;;;5092153;28;20040;-66
2023/12/16 04:51:06;;;;;;;2.58;1.17;;;;;;;;;;5080168;28;20043;-66
2023/12/16 04:53:32;;;;;;;3.28;1.33;;;;;;;;;;5090858;28;20028;-66
2023/12/16 04:55:58;;;;;;;1.73;1.00;;;;;;;;;;5073398;28;20614;-66
2023/12/16 04:58:24;;;;;;;1.70;0.70;;;;;;;;;;5091687;28;20036;-66
2023/12/16 05:00:49;;;;;;;1.60;0.90;;;;;;;;;;5092142;28;20202;-66
2023/12/16 05:03:15;;;;;;;2.90;1.30;;;;;;;;;;5091412;28;20133;-66
2023/12/16 05:05:41;;;;;;;2.20;1.25;;;;;;;;;;5091664;28;20081;-66
2023/12/16 05:08:06;;;;;;;4.57;1.63;;;;;;;;;;5091707;28;20055;-66
2023/12/16 05:10:31;;;;;;;3.17;1.27;;;;;;;;;;5090411;28;20138;-67
2023/12/16 05:12:56;;;;;;;3.00;1.20;;;;;;;;;;5091532;28;20040;-65
2023/12/16 05:15:22;;;;;;;1.85;1.00;;;;;;;;;;5091919;28;20384;-66
2023/12/16 05:17:47;;;;;;;2.08;1.40;;;;;;;;;;5091601;28;20534;-67
2023/12/16 05:20:13;;;;;;;2.17;1.33;;;;;;;;;;5087473;28;20047;-66
2023/12/16 05:22:38;;;;;;;2.20;1.30;;;;;;;;;;5091321;28;20040;-66
2023/12/16 05:25:04;;;;;;;4.07;1.20;;;;;;;;;;5091649;28;20027;-66
2023/12/16 05:27:30;;;;;;;2.47;1.10;;;;;;;;;;5091076;28;20414;-67
2023/12/16 05:29:57;;;;;;;2.83;1.25;;;;;;;;;;5091689;28;20058;-66
2023/12/16 05:32:22;;;;;;;2.40;1.02;;;;;;;;;;5082317;28;20046;-66
2023/12/16 05:34:49;;;;;;;3.33;1.20;;;;;;;;;;5085801;28;20122;-66
2023/12/16 05:37:14;;;;;;;8.73;1.20;;;;;;;;;;5091138;28;20028;-66
2023/12/16 05:39:39;;;;;;;1.75;1.00;;;;;;;;;;5091240;28;20390;-66
2023/12/16 05:42:05;;;;;;;2.60;1.00;;;;;;;;;;5090919;28;20040;-66
2023/12/16 05:44:30;;;;;;;1.75;0.90;;;;;;;;;;5091213;28;20551;-66
2023/12/16 05:46:55;;;;;;;2.15;1.20;;;;;;;;;;5090712;28;20548;-66
2023/12/16 05:49:21;;;;;;;2.42;1.00;;;;;;;;;;5090423;28;20036;-66
2023/12/16 05:51:46;;;;;;;2.13;0.82;;;;;;;;;;5090847;28;20032;-66
2023/12/16 05:54:12;;;;;;;2.50;0.70;;;;;;;;;;5091146;28;20366;-66
2023/12/16 05:56:37;;;;;;;2.92;0.93;;;;;;;;;;5090590;28;20036;-66
2023/12/16 05:59:02;;;;;;;3.45;0.75;;;;;;;;;;5091149;28;20031;-66
2023/12/16 06:01:28;;;;;;;2.30;0.90;;;;;;;;;;5090188;28;20440;-65
2023/12/16 06:03:53;;;;;;;1.52;0.60;;;;;;;;;;5091008;28;20655;-66
2023/12/16 06:06:19;;;;;;;0.88;0.60;;;;;;;;;;5071686;28;20024;-65
2023/12/16 06:08:44;;;;;;;0.70;0.50;;;;;;;;;;5091063;28;20040;-66
2023/12/16 06:11:12;;;;;;;0.80;0.50;;;;;;;;;;5089988;28;20058;-66
2023/12/16 06:13:41;;;;;;;0.90;0.50;;;;;;;;;;5090862;28;20032;-66
2023/12/16 06:16:09;;;;;;;1.02;0.60;;;;;;;;;;5075347;28;20044;-67
2023/12/16 06:18:35;;;;;;;1.77;0.70;;;;;;;;;;5079818;28;20040;-65
2023/12/16 06:21:01;;;;;;;0.70;0.40;;;;;;;;;;5090297;28;20173;-66
2023/12/16 06:23:26;;;;;;;1.02;0.68;;;;;;;;;;5082274;28;20032;-67
2023/12/16 06:25:52;;;;;;;0.57;0.50;;;;;;;;;;5086913;28;20055;-66
2023/12/16 06:28:17;;;;;;;0.90;0.60;;;;;;;;;;5088387;28;20221;-66
2023/12/16 06:30:42;;;;;;;1.27;0.70;;;;;;;;;;5071966;28;20125;-66
2023/12/16 06:33:08;;;;;;;0.82;0.60;;;;;;;;;;5090073;28;20044;-66
2023/12/16 06:35:33;;;;;;;1.80;0.80;;;;;;;;;;5090293;28;20047;-66
2023/12/16 06:37:59;;;;;;;0.82;0.50;;;;;;;;;;5090510;28;20451;-66
2023/12/16 06:40:25;;;;;;;1.63;0.60;;;;;;;;;;5088969;28;20694;-65
2023/12/16 06:42:50;;;;;;;0.40;0.40;;;;;;;;;;5090043;28;20046;-66
2023/12/16 06:45:15;;;;;;;0.98;0.60;;;;;;;;;;5090162;28;20138;-66
2023/12/16 06:47:40;;;;;;;0.77;0.60;;;;;;;;;;5083673;28;20135;-65
2023/12/16 06:50:08;;;;;;;0.85;0.50;;;;;;;;;;5085197;28;20056;-66
2023/12/16 06:52:33;;;;;;;1.40;0.50;;;;;;;;;;5084078;28;20040;-67
2023/12/16 06:54:58;;;;;;;1.65;0.60;;;;;;;;;;5089991;28;20093;-66
2023/12/16 06:57:24;;;;;;;1.98;0.50;;;;;;;;;;5089562;28;20028;-66
2023/12/16 06:59:49;;;;;;;0.95;0.45;;;;;;;;;;5072013;28;20123;-66
2023/12/16 07:02:14;;;;;;;3.78;0.60;;;;;;;;;;5087081;28;20056;-66
2023/12/16 07:04:40;;;;;;;1.52;0.80;;;;;;;;;;5089740;28;20032;-66
2023/12/16 07:07:05;;;;;;;1.38;0.45;;;;;;;;;;5090226;28;20043;-66
2023/12/16 07:09:31;;;;;;;0.93;0.40;;;;;;;;;;5071916;28;20040;-65
2023/12/16 07:11:56;;;;;;;0.35;0.32;;;;;;;;;;5089322;28;20028;-66
2023/12/16 07:14:21;;;;;;;0.90;0.35;;;;;;;;;;5089921;28;20035;-66
2023/12/16 07:16:47;;;;;;;0.85;0.50;;;;;;;;;;5089767;28;20036;-66
2023/12/16 07:19:14;;;;;;;0.80;0.50;;;;;;;;;;5093271;28;20177;-66
2023/12/16 07:21:42;;;;;;;0.52;0.40;;;;;;;;;;5093557;28;20051;-66
2023/12/16 07:24:07;;;;;;;0.35;0.30;;;;;;;;;;5076057;28;20043;-66
2023/12/16 07:26:34;;;;;;;0.35;0.35;;;;;;;;;;5093392;28;20040;-66
2023/12/16 07:29:00;;;;;;;2.40;1.15;;;;;;;;;;5093951;28;20732;-66
2023/12/16 07:31:25;;;;;;;1.77;0.85;;;;;;;;;;5093111;28;20040;-66
2023/12/16 07:33:51;;;;;;;3.22;0.93;;;;;;;;;;5093758;28;20032;-66
2023/12/16 07:36:16;;;;;;;0.75;0.50;;;;;;;;;;5093689;28;20426;-66
2023/12/16 07:38:41;;;;;;;0.50;0.40;;;;;;;;;;5093908;28;20572;-67
2023/12/16 07:41:07;;;;;;;1.02;0.55;;;;;;;;;;5093272;28;20464;-66
2023/12/16 07:43:32;;;;;;;0.95;0.52;;;;;;;;;;5092546;28;20073;-66
2023/12/16 07:45:58;;;;;;;1.70;0.90;;;;;;;;;;5093301;28;20043;-66
2023/12/16 07:48:24;;;;;;;1.80;1.00;;;;;;;;;;5093161;28;20028;-66
2023/12/16 07:50:53;;;;;;;4.97;0.90;;;;;;;;;;5093180;28;20452;-66
2023/12/16 07:53:20;;;;;;;1.35;0.70;;;;;;;;;;5092974;28;20055;-66
2023/12/16 07:55:45;;;;;;;1.65;0.90;;;;;;;;;;5093203;28;20027;-66
2023/12/16 07:58:10;;;;;;;2.83;0.90;;;;;;;;;;5093156;28;20028;-66
2023/12/16 08:00:36;;;;;;;2.28;1.30;;;;;;;;;;5093171;28;20394;-66
2023/12/16 08:03:01;;;;;;;3.88;1.70;;;;;;;;;;5092723;28;20075;-67
2023/12/16 08:05:26;;;;;;;1.60;0.80;;;;;;;;;;5093067;28;20122;-67
2023/12/16 08:07:51;;;;;;;3.38;1.58;;;;;;;;;;5093000;28;20095;-67
2023/12/16 08:10:17;;;;;;;2.75;1.55;;;;;;;;;;5092552;28;20024;-66
2023/12/16 08:12:42;;;;;;;1.58;0.75;;;;;;;;;;5092846;28;20474;-67
2023/12/16 08:15:08;;;;;;;1.40;0.70;;;;;;;;;;5091623;28;20067;-66
2023/12/16 08:17:35;;;;;;;1.20;0.82;;;;;;;;;;5091682;28;20040;-67
2023/12/16 08:20:00;;;;;;;2.50;1.15;;;;;;;;;;5085615;28;21284;-66
2023/12/16 08:22:26;;;;;;;3.88;2.67;;;;;;;;;;5092481;28;20040;-66
2023/12/16 08:24:52;;;;;;;6.03;3.00;;;;;;;;;;5087327;28;20059;-66
2023/12/16 08:27:17;;;;;;;2.42;1.33;;;;;;;;;;5092494;28;20177;-66
2023/12/16 08:29:44;;;;;;;3.70;1.52;;;;;;;;;;5091869;28;20107;-66
2023/12/16 08:32:09;;;;;;;2.33;1.20;;;;;;;;;;5092218;28;20375;-66
2023/12/16 08:34:35;;;;;;;2.03;0.90;;;;;;;;;;5073138;28;20115;-66
2023/12/16 08:37:00;;;;;;;2.05;1.00;;;;;;;;;;5092365;28;20115;-67
2023/12/16 08:39:26;;;;;;;3.97;0.85;;;;;;;;;;5092071;28;20024;-66
2023/12/16 08:41:51;;;;;;;1.45;0.80;;;;;;;;;;5092310;28;20030;-66
2023/12/16 08:44:17;;;;;;;1.48;0.80;;;;;;;;;;5091631;28;20078;-66
2023/12/16 08:46:42;;;;;;;1.50;0.90;;;;;;;;;;5091923;28;20035;-66
2023/12/16 08:49:08;;;;;;;4.78;1.10;;;;;;;;;;5084911;28;20085;-67
2023/12/16 08:51:33;;;;;;;2.58;1.10;;;;;;;;;;5092247;28;20047;-67
2023/12/16 08:54:00;;;;;;;1.95;1.15;;;;;;;;;;5091811;28;20446;-67
2023/12/16 08:56:25;;;;;;;1.70;0.88;;;;;;;;;;5073126;28;20028;-66
2023/12/16 08:58:51;;;;;;;11.25;4.00;;;;;;;;;;5090580;28;20054;-66
2023/12/16 09:01:16;;;;;;;9.32;4.80;;;;;;;;;;5090554;28;20241;-66
2023/12/16 09:03:45;;;;;;;5.82;3.20;;;;;;;;;;5090446;28;20727;-66
2023/12/16 09:06:10;;;;;;;3.65;2.20;;;;;;;;;;5072635;28;20125;-67
2023/12/16 09:08:35;;;;;;;4.30;2.10;;;;;;;;;;5087166;28;20111;-66
2023/12/16 09:11:01;;;;;;;3.22;1.85;;;;;;;;;;5081172;28;20960;-66
2023/12/16 09:13:27;;;;;;;5.15;1.38;;;;;;;;;;5087646;28;20479;-66
2023/12/16 09:15:52;;;;;;;3.10;1.20;;;;;;;;;;5087048;28;20495;-66
2023/12/16 09:18:17;;;;;;;3.03;1.20;;;;;;;;;;5069542;28;20765;-67
2023/12/16 09:20:43;;;;;;;2.60;1.58;;;;;;;;;;5088348;28;20071;-66
2023/12/16 09:23:08;;;;;;;2.42;1.25;;;;;;;;;;5086828;28;20039;-66
2023/12/16 09:25:34;;;;;;;2.67;1.17;;;;;;;;;;5087706;28;20032;-67
2023/12/16 09:27:59;;;;;;;1.58;0.73;;;;;;;;;;5087773;28;20047;-67
2023/12/16 09:30:25;;;;;;;3.40;1.65;;;;;;;;;;5086530;28;20568;-67
2023/12/16 09:32:50;;;;;;;3.25;1.65;;;;;;;;;;5088265;28;20028;-66
2023/12/16 09:35:15;;;;;;;2.47;1.08;;;;;;;;;;5087074;28;20193;-67
2023/12/16 09:37:41;;;;;;;2.60;1.20;;;;;;;;;;5087231;28;20023;-67
2023/12/16 09:40:07;;;;;;;1.42;0.70;;;;;;;;;;5087682;28;20376;-67
2023/12/16 09:42:35;;;;;;;1.73;0.82;;;;;;;;;;5087924;28;20051;-67
2023/12/16 09:45:02;;;;;;;3.30;1.45;;;;;;;;;;5066937;28;20059;-67
2023/12/16 09:47:28;;;;;;;4.85;2.08;;;;;;;;;;5086765;28;20035;-67
2023/12/16 09:49:57;;;;;;;3.42;1.08;;;;;;;;;;5069110;28;20375;-66
2023/12/16 09:52:22;;;;;;;4.35;2.13;;;;;;;;;;5086501;28;20486;-67
2023/12/16 09:54:48;;;;;;;2.25;0.85;;;;;;;;;;5087017;28;20028;-66
2023/12/16 09:57:13;;;;;;;1.17;0.63;;;;;;;;;;5087521;28;20027;-67
2023/12/16 09:59:39;;;;;;;2.15;1.30;;;;;;;;;;5069486;28;20035;-67
2023/12/16 10:02:11;;;;;;;2.05;1.00;;;;;;;;;;5069148;28;20074;-67
2023/12/16 10:04:37;;;;;;;2.42;1.00;;;;;;;;;;5069286;28;20039;-67
2023/12/16 10:07:02;;;;;;;3.03;1.20;;;;;;;;;;5072408;28;20167;-67
2023/12/16 10:09:28;;;;;;;0.75;0.50;;;;;;;;;;5086940;28;20086;-67
2023/12/16 10:11:56;;;;;;;3.90;1.05;;;;;;;;;;5086238;28;20040;-67
2023/12/16 10:14:21;;;;;;;2.78;1.08;;;;;;;;;;5086601;28;20039;-67
2023/12/16 10:16:47;;;;;;;2.42;0.80;;;;;;;;;;5087140;28;20040;-67
2023/12/16 10:19:12;;;;;;;2.60;1.30;;;;;;;;;;5078378;28;20036;-67
2023/12/16 10:21:39;;;;;;;2.22;0.90;;;;;;;;;;5068118;28;20030;-67
2023/12/16 10:24:05;;;;;;;2.60;1.30;;;;;;;;;;5068547;28;20036;-66
2023/12/16 10:26:31;;;;;;;3.42;1.10;;;;;;;;;;5086222;28;20054;-67
2023/12/16 10:28:57;;;;;;;2.20;0.80;;;;;;;;;;5087200;28;20028;-67
2023/12/16 10:31:24;;;;;;;3.95;0.82;;;;;;;;;;5086395;28;20032;-67
2023/12/16 10:33:50;;;;;;;2.20;1.10;;;;;;;;;;5069914;28;20039;-67
2023/12/16 10:36:16;;;;;;;3.38;1.55;;;;;;;;;;5069060;28;20040;-67
2023/12/16 10:38:42;;;;;;;1.83;0.70;;;;;;;;;;5086376;28;20054;-66
2023/12/16 10:41:07;;;;;;;6.28;2.20;;;;;;;;;;5086028;28;20042;-66
2023/12/16 10:43:33;;;;;;;6.60;1.90;;;;;;;;;;5085304;28;20049;-67
2023/12/16 10:46:03;;;;;;;3.30;1.13;;;;;;;;;;5062158;28;21147;-67
2023/12/16 10:48:31;;;;;;;4.03;1.42;;;;;;;;;;5085075;28;20304;-67
2023/12/16 10:51:00;;;;;;;2.58;1.17;;;;;;;;;;5086207;28;20028;-67
2023/12/16 10:53:44;;;;;;;4.28;2.00;;;;;;;;;;5067768;28;20047;-67
2023/12/16 10:56:38;;;;;;;5.22;0.88;;;;;;;;;;5072728;28;20043;-67
2023/12/16 10:59:05;;;;;;;2.90;1.30;;;;;;;;;;5065536;28;20069;-67
2023/12/16 11:01:39;;;;;;;1.58;0.85;;;;;;;;;;5090988;28;20121;-67
2023/12/16 11:04:13;;;;;;;2.67;0.70;;;;;;;;;;5086359;28;20040;-67
2023/12/16 11:06:51;;;;;;;3.30;1.20;;;;;;;;;;5084310;28;20051;-67
2023/12/16 11:09:17;;;;;;;1.05;0.60;;;;;;;;;;5068496;28;20040;-67
2023/12/16 11:11:43;;;;;;;0.68;0.50;;;;;;;;;;5086831;28;20146;-67
2023/12/16 11:14:09;;;;;;;0.45;0.40;;;;;;;;;;5086071;28;20146;-67
2023/12/16 11:17:08;;;;;;;0.63;0.50;;;;;;;;;;5067521;28;20072;-67
2023/12/16 11:19:36;;;;;;;0.40;0.40;;;;;;;;;;5059441;28;20060;-67
2023/12/16 11:22:02;;;;;;;0.90;0.60;;;;;;;;;;5067989;28;20036;-67
2023/12/16 11:24:27;;;;;;;1.60;0.80;;;;;;;;;;5083988;28;20089;-67
2023/12/16 11:26:53;;;;;;;1.88;0.70;;;;;;;;;;5085988;28;20047;-67
2023/12/16 11:29:23;;;;;;;3.08;1.10;;;;;;;;;;5085698;28;20032;-67
2023/12/16 11:31:51;;;;;;;1.45;0.60;;;;;;;;;;5085814;28;20111;-67
2023/12/16 11:34:39;;;;;;;2.00;0.98;;;;;;;;;;5068098;28;20028;-67
2023/12/16 11:37:04;;;;;;;1.58;0.77;;;;;;;;;;5086054;28;20598;-67
2023/12/16 11:39:40;;;;;;;4.20;1.50;;;;;;;;;;5086102;28;20028;-67
2023/12/16 11:42:09;;;;;;;1.30;0.60;;;;;;;;;;5082718;28;20066;-67
2023/12/16 11:44:50;;;;;;;1.02;0.63;;;;;;;;;;5085594;28;20127;-67
2023/12/16 11:47:26;;;;;;;2.75;0.60;;;;;;;;;;5085630;28;20032;-67
2023/12/16 11:49:55;;;;;;;0.73;0.50;;;;;;;;;;5068012;28;20048;-67
2023/12/16 11:52:22;;;;;;;0.90;0.40;;;;;;;;;;5067533;28;20070;-67
2023/12/16 11:54:55;;;;;;;0.88;0.50;;;;;;;;;;5086931;28;20114;-67
2023/12/16 11:57:25;;;;;;;0.80;0.47;;;;;;;;;;5080449;28;20549;-67
2023/12/16 11:59:51;;;;;;;1.05;0.50;;;;;;;;;;5074123;28;20442;-66
2023/12/16 12:02:17;;;;;;;1.10;0.60;;;;;;;;;;5084559;28;20028;-67
2023/12/16 12:04:42;;;;;;;0.52;0.38;;;;;;;;;;5085893;28;20068;-67
2023/12/16 12:07:08;;;;;;;1.73;0.70;;;;;;;;;;5064601;28;20044;-68
2023/12/16 12:09:33;;;;;;;1.42;0.77;;;;;;;;;;5073660;28;20089;-68
2023/12/16 12:12:01;;;;;;;1.13;0.70;;;;;;;;;;5089026;28;20069;-67
2023/12/16 12:14:26;;;;;;;1.08;0.60;;;;;;;;;;5089216;28;20104;-67
2023/12/16 12:16:51;;;;;;;1.48;0.80;;;;;;;;;;5088761;28;20020;-67
2023/12/16 12:19:17;;;;;;;1.98;0.70;;;;;;;;;;5070470;28;20596;-67
2023/12/16 12:21:43;;;;;;;1.23;0.73;;;;;;;;;;5087843;28;20098;-67
2023/12/16 12:24:08;;;;;;;2.92;0.70;;;;;;;;;;5089036;28;20062;-67
2023/12/16 12:26:34;;;;;;;2.15;1.23;;;;;;;;;;5089331;28;20146;-68
2023/12/16 12:29:02;;;;;;;1.10;0.70;;;;;;;;;;5074949;28;20043;-67
2023/12/16 12:31:27;;;;;;;0.90;0.60;;;;;;;;;;5084629;28;20024;-67
2023/12/16 12:33:53;;;;;;;1.90;0.70;;;;;;;;;;5083864;28;20032;-67
2023/12/16 12:36:18;;;;;;;1.60;0.70;;;;;;;;;;5096369;28;20051;-67
2023/12/16 12:38:53;;;;;;;1.55;0.77;;;;;;;;;;5091198;28;20031;-67
2023/12/16 12:41:19;;;;;;;1.73;0.70;;;;;;;;;;5089456;28;20060;-67
2023/12/16 12:43:44;;;;;;;5.80;2.17;;;;;;;;;;5094697;28;20052;-68
2023/12/16 12:46:12;;;;;;;1.63;0.90;;;;;;;;;;5092009;28;20056;-67
2023/12/16 12:48:38;;;;;;;3.30;2.00;;;;;;;;;;5072949;28;20040;-67
2023/12/16 12:51:04;;;;;;;2.45;1.60;;;;;;;;;;5098992;28;20486;-67
2023/12/16 12:53:30;;;;;;;6.38;2.53;;;;;;;;;;5073091;28;20024;-67
2023/12/16 12:55:56;;;;;;;4.40;1.60;;;;;;;;;;5078576;28;20077;-67
2023/12/16 12:58:22;;;;;;;2.65;1.00;;;;;;;;;;5091624;28;20043;-67
2023/12/16 13:00:49;;;;;;;4.68;0.90;;;;;;;;;;5091720;28;20036;-67
2023/12/16 13:03:15;;;;;;;5.20;1.10;;;;;;;;;;5090645;28;20499;-67
2023/12/16 13:05:41;;;;;;;2.67;1.30;;;;;;;;;;5080127;28;20032;-67
2023/12/16 13:08:10;;;;;;;3.28;1.38;;;;;;;;;;5091096;28;20039;-67
2023/12/16 13:10:36;;;;;;;1.05;0.70;;;;;;;;;;5090403;28;20036;-67
2023/12/16 13:13:01;;;;;;;1.58;0.70;;;;;;;;;;5085625;28;20041;-66
2023/12/16 13:15:27;;;;;;;4.40;1.15;;;;;;;;;;5091533;28;20032;-67
2023/12/16 13:17:52;;;;;;;3.75;0.95;;;;;;;;;;5091878;28;20395;-67
2023/12/16 13:20:17;;;;;;;5.80;1.25;;;;;;;;;;5091677;28;20039;-67
2023/12/16 13:22:43;;;;;;;1.98;0.98;;;;;;;;;;5091919;28;20029;-66
2023/12/16 13:25:12;;;;;;;3.28;1.20;;;;;;;;;;5091658;28;20095;-67
2023/12/16 13:27:42;;;;;;;3.05;0.90;;;;;;;;;;5073975;28;20028;-67
2023/12/16 13:30:09;;;;;;;4.20;1.65;;;;;;;;;;5091986;28;20036;-66
2023/12/16 13:32:35;;;;;;;4.40;1.75;;;;;;;;;;5071263;28;20050;-66
2023/12/16 13:35:00;;;;;;;4.18;1.48;;;;;;;;;;5091116;28;20118;-66
2023/12/16 13:37:26;;;;;;;5.80;2.00;;;;;;;;;;5073493;28;20027;-66
2023/12/16 13:39:51;;;;;;;4.30;1.50;;;;;;;;;;5091437;28;20613;-66
2023/12/16 13:42:17;;;;;;;5.18;1.45;;;;;;;;;;5091179;28;20452;-67
2023/12/16 13:44:42;;;;;;;6.05;1.30;;;;;;;;;;5091637;28;20070;-66
2023/12/16 13:47:07;;;;;;;2.70;1.27;;;;;;;;;;5091341;28;20586;-66
2023/12/16 13:49:33;;;;;;;3.75;1.00;;;;;;;;;;5090981;28;20031;-66
2023/12/16 13:51:58;;;;;;;3.53;1.35;;;;;;;;;;5091343;28;20046;-66
2023/12/16 13:54:23;;;;;;;2.38;1.05;;;;;;;;;;5091341;28;20471;-66
2023/12/16 13:56:49;;;;;;;1.58;0.80;;;;;;;;;;5090969;28;20452;-66
2023/12/16 13:59:15;;;;;;;3.17;1.35;;;;;;;;;;5071402;28;20028;-66
2023/12/16 14:01:40;;;;;;;3.58;1.00;;;;;;;;;;5091174;28;20035;-66
2023/12/16 14:04:05;;;;;;;2.90;0.98;;;;;;;;;;5089917;28;20046;-67
2023/12/16 14:06:31;;;;;;;2.30;1.05;;;;;;;;;;5091018;28;20032;-66
2023/12/16 14:08:56;;;;;;;1.70;0.60;;;;;;;;;;5072292;28;20074;-66
2023/12/16 14:11:21;;;;;;;0.90;0.55;;;;;;;;;;5073766;28;20058;-67
2023/12/16 14:13:47;;;;;;;2.05;0.90;;;;;;;;;;5089543;28;20043;-66
2023/12/16 14:16:12;;;;;;;1.73;0.90;;;;;;;;;;5089825;28;20043;-66
2023/12/16 14:18:37;;;;;;;1.38;0.70;;;;;;;;;;5071677;28;20605;-67
2023/12/16 14:21:03;;;;;;;2.58;0.90;;;;;;;;;;5090826;28;20060;-67
2023/12/16 14:23:28;;;;;;;1.70;0.90;;;;;;;;;;5090139;28;20040;-66
2023/12/16 14:25:54;;;;;;;1.45;0.70;;;;;;;;;;5090512;28;20042;-67
2023/12/16 14:28:19;;;;;;;3.20;0.50;;;;;;;;;;5089515;28;20475;-66
2023/12/16 14:30:44;;;;;;;0.93;0.55;;;;;;;;;;5090115;28;20055;-66
2023/12/16 14:33:10;;;;;;;1.08;0.68;;;;;;;;;;5089992;28;20092;-66
2023/12/16 14:35:36;;;;;;;0.73;0.60;;;;;;;;;;5090254;28;20058;-66
2023/12/16 14:38:01;;;;;;;1.20;0.70;;;;;;;;;;5090003;28;20040;-66